Time,TemperatureF,DewpointF,PressureIn,WindDirection,WindDirectionDegrees,WindSpeedMPH,WindSpeedGustMPH,Humidity,HourlyPrecipIn,Conditions,Clouds,dailyrainin,SoftwareType,DateUTC
2013-07-27 00:01:00,69.8,66.0,29.99,SSE,165,0.0,0.0,87,0.00,,,0.00,weatherlink.com 1.10,2013-07-27 04:01:00,
2013-07-27 00:16:00,69.3,66.0,29.99,SSE,165,0.0,0.0,88,0.00,,,0.00,weatherlink.com 1.10,2013-07-27 04:16:00,
2013-07-27 00:46:00,68.3,65.0,29.99,SSE,165,0.0,0.0,90,0.00,,,0.00,weatherlink.com 1.10,2013-07-27 04:46:00,
2013-07-27 01:01:00,67.7,65.0,29.99,SSE,165,0.0,0.0,91,0.00,,,0.00,weatherlink.com 1.10,2013-07-27 05:01:00,
2013-07-27 01:16:00,67.2,65.0,29.99,SSE,165,0.0,0.0,91,0.00,,,0.00,weatherlink.com 1.10,2013-07-27 05:16:00,
2013-07-27 01:31:00,66.9,65.0,30.00,SSE,165,0.0,0.0,92,0.00,,,0.00,weatherlink.com 1.10,2013-07-27 05:31:00,
2013-07-27 01:46:00,66.6,65.0,29.99,SSE,165,0.0,0.0,93,0.00,,,0.00,weatherlink.com 1.10,2013-07-27 05:46:00,
2013-07-27 02:01:00,66.2,64.0,29.99,SSE,165,0.0,0.0,92,0.00,,,0.00,weatherlink.com 1.10,2013-07-27 06:01:00,
2013-07-27 02:17:00,65.8,64.0,29.99,SSE,165,0.0,0.0,93,0.00,,,0.00,weatherlink.com 1.10,2013-07-27 06:17:00,
2013-07-27 02:31:00,65.4,63.0,29.99,SSE,165,0.0,0.0,93,0.00,,,0.00,weatherlink.com 1.10,2013-07-27 06:31:00,
2013-07-27 02:46:00,65.1,63.0,29.99,SSE,165,0.0,0.0,93,0.00,,,0.00,weatherlink.com 1.10,2013-07-27 06:46:00,
2013-07-27 03:01:00,64.8,63.0,29.99,SSE,165,0.0,0.0,94,0.00,,,0.00,weatherlink.com 1.10,2013-07-27 07:01:00,
2013-07-27 03:16:00,64.5,63.0,29.98,SSE,165,0.0,0.0,94,0.00,,,0.00,weatherlink.com 1.10,2013-07-27 07:16:00,
2013-07-27 03:32:00,64.5,63.0,29.98,SSE,165,0.0,0.0,95,0.00,,,0.00,weatherlink.com 1.10,2013-07-27 07:32:00,
2013-07-27 03:47:00,64.7,63.0,29.98,SSE,165,0.0,0.0,95,0.00,,,0.00,weatherlink.com 1.10,2013-07-27 07:47:00,
2013-07-27 04:02:00,64.7,63.0,29.98,SSE,165,0.0,0.0,95,0.00,,,0.00,weatherlink.com 1.10,2013-07-27 08:02:00,
2013-07-27 04:17:00,64.5,63.0,29.98,SSE,165,0.0,0.0,95,0.00,,,0.00,weatherlink.com 1.10,2013-07-27 08:17:00,
2013-07-27 04:32:00,64.2,63.0,29.98,SSE,165,0.0,0.0,95,0.00,,,0.00,weatherlink.com 1.10,2013-07-27 08:32:00,
2013-07-27 04:47:00,63.9,63.0,29.98,SSE,165,0.0,0.0,95,0.00,,,0.00,weatherlink.com 1.10,2013-07-27 08:47:00,
2013-07-27 05:02:00,63.6,62.0,29.99,SSE,165,0.0,0.0,95,0.00,,,0.00,weatherlink.com 1.10,2013-07-27 09:02:00,
2013-07-27 05:17:00,63.4,62.0,29.99,SSE,165,0.0,0.0,95,0.00,,,0.00,weatherlink.com 1.10,2013-07-27 09:17:00,
2013-07-27 05:32:00,63.3,62.0,29.99,SSE,165,0.0,0.0,96,0.00,,,0.00,weatherlink.com 1.10,2013-07-27 09:32:00,
2013-07-27 05:47:00,63.1,62.0,29.99,SSE,165,0.0,0.0,95,0.00,,,0.00,weatherlink.com 1.10,2013-07-27 09:47:00,
2013-07-27 06:02:00,62.8,62.0,29.99,SSE,165,0.0,0.0,96,0.00,,,0.00,weatherlink.com 1.10,2013-07-27 10:02:00,
2013-07-27 06:17:00,62.7,62.0,29.99,SSE,165,0.0,0.0,96,0.00,,,0.00,weatherlink.com 1.10,2013-07-27 10:17:00,
2013-07-27 06:32:00,62.9,62.0,29.99,East,82,0.0,0.0,96,0.00,,,0.00,weatherlink.com 1.10,2013-07-27 10:32:00,
2013-07-27 06:47:00,63.0,62.0,29.99,East,82,0.0,0.0,96,0.00,,,0.00,weatherlink.com 1.10,2013-07-27 10:47:00,
2013-07-27 07:02:00,63.2,62.0,29.99,East,82,0.0,0.0,97,0.00,,,0.00,weatherlink.com 1.10,2013-07-27 11:02:00,
2013-07-27 07:17:00,63.9,63.0,29.99,East,82,0.0,0.0,97,0.00,,,0.00,weatherlink.com 1.10,2013-07-27 11:17:00,
2013-07-27 07:32:00,64.9,64.0,29.99,East,82,0.0,0.0,98,0.00,,,0.00,weatherlink.com 1.10,2013-07-27 11:32:00,
2013-07-27 07:47:00,66.1,66.0,29.99,East,81,0.0,1.0,98,0.00,,,0.00,weatherlink.com 1.10,2013-07-27 11:47:00,
2013-07-27 08:02:00,67.3,67.0,30.00,North,350,0.0,1.0,97,0.00,,,0.00,weatherlink.com 1.10,2013-07-27 12:02:00,
2013-07-27 08:17:00,68.9,68.0,29.99,SSE,159,0.0,2.0,95,0.00,,,0.00,weatherlink.com 1.10,2013-07-27 12:17:00,
2013-07-27 08:32:00,71.2,68.0,30.00,South,180,0.0,2.0,90,0.00,,,0.00,weatherlink.com 1.10,2013-07-27 12:32:00,
2013-07-27 08:47:00,73.3,69.0,29.99,WSW,250,0.0,2.0,85,0.00,,,0.00,weatherlink.com 1.10,2013-07-27 12:47:00,
2013-07-27 09:02:00,74.8,69.0,30.00,East,86,0.0,2.0,83,0.00,,,0.00,weatherlink.com 1.10,2013-07-27 13:02:00,
2013-07-27 09:17:00,76.7,69.0,29.99,WNW,299,3.0,3.0,78,0.00,,,0.00,weatherlink.com 1.10,2013-07-27 13:17:00,
2013-07-27 09:32:00,77.9,69.0,30.00,WNW,284,0.0,4.0,75,0.00,,,0.00,weatherlink.com 1.10,2013-07-27 13:32:00,
2013-07-27 09:47:00,79.4,70.0,30.00,South,188,1.0,2.0,73,0.00,,,0.00,weatherlink.com 1.10,2013-07-27 13:47:00,
2013-07-27 10:02:00,80.3,70.0,30.00,WNW,288,0.0,3.0,71,0.00,,,0.00,weatherlink.com 1.10,2013-07-27 14:02:00,
2013-07-27 10:17:00,80.5,70.0,30.00,WSW,257,0.0,3.0,71,0.00,,,0.00,weatherlink.com 1.10,2013-07-27 14:17:00,
2013-07-27 10:32:00,81.9,69.0,30.00,WNW,293,3.0,3.0,66,0.00,,,0.00,weatherlink.com 1.10,2013-07-27 14:32:00,
2013-07-27 10:47:00,81.4,69.0,30.00,SW,222,0.0,2.0,66,0.00,,,0.00,weatherlink.com 1.10,2013-07-27 14:47:00,
2013-07-27 11:02:00,80.9,69.0,30.00,SSE,157,0.0,2.0,67,0.00,,,0.00,weatherlink.com 1.10,2013-07-27 15:02:00,
2013-07-27 11:17:00,80.6,67.0,29.99,WNW,291,0.0,2.0,63,0.00,,,0.00,weatherlink.com 1.10,2013-07-27 15:17:00,
2013-07-27 11:32:00,81.1,67.0,29.99,West,261,0.0,2.0,63,0.00,,,0.00,weatherlink.com 1.10,2013-07-27 15:32:00,
2013-07-27 11:47:00,81.3,67.0,29.99,SSW,209,0.0,2.0,63,0.00,,,0.00,weatherlink.com 1.10,2013-07-27 15:47:00,
2013-07-27 12:02:00,82.7,66.0,29.99,WNW,292,0.0,2.0,57,0.00,,,0.00,weatherlink.com 1.10,2013-07-27 16:02:00,
2013-07-27 12:18:00,82.5,66.0,29.99,West,265,0.0,6.0,58,0.00,,,0.00,weatherlink.com 1.10,2013-07-27 16:18:00,
2013-07-27 12:33:00,82.3,65.0,29.98,South,178,2.0,4.0,57,0.00,,,0.00,weatherlink.com 1.10,2013-07-27 16:33:00,
2013-07-27 12:48:00,83.3,65.0,29.98,SSW,199,1.0,3.0,54,0.00,,,0.00,weatherlink.com 1.10,2013-07-27 16:48:00,
2013-07-27 13:03:00,83.4,66.0,29.98,West,278,0.0,3.0,55,0.00,,,0.00,weatherlink.com 1.10,2013-07-27 17:03:00,
2013-07-27 13:18:00,83.7,65.0,29.97,West,262,0.0,3.0,54,0.00,,,0.00,weatherlink.com 1.10,2013-07-27 17:18:00,
2013-07-27 13:33:00,84.3,63.0,29.97,WNW,300,0.0,5.0,49,0.00,,,0.00,weatherlink.com 1.10,2013-07-27 17:33:00,
2013-07-27 13:48:00,83.5,62.0,29.96,SE,140,2.0,4.0,48,0.00,,,0.00,weatherlink.com 1.10,2013-07-27 17:48:00,
2013-07-27 14:03:00,83.0,64.0,29.96,SSE,150,0.0,3.0,53,0.00,,,0.00,weatherlink.com 1.10,2013-07-27 18:03:00,
2013-07-27 14:18:00,83.0,63.0,29.95,SSW,197,1.0,5.0,51,0.00,,,0.00,weatherlink.com 1.10,2013-07-27 18:18:00,
2013-07-27 14:33:00,83.8,62.0,29.95,SE,146,1.0,3.0,48,0.00,,,0.00,weatherlink.com 1.10,2013-07-27 18:33:00,
2013-07-27 14:48:00,83.6,65.0,29.94,SSE,154,0.0,3.0,54,0.00,,,0.00,weatherlink.com 1.10,2013-07-27 18:48:00,
2013-07-27 15:03:00,84.6,66.0,29.94,SE,125,2.0,4.0,53,0.00,,,0.00,weatherlink.com 1.10,2013-07-27 19:03:00,
2013-07-27 15:18:00,84.2,65.0,29.94,SSW,209,1.0,3.0,52,0.00,,,0.00,weatherlink.com 1.10,2013-07-27 19:18:00,
2013-07-27 15:33:00,84.0,65.0,29.93,SE,140,0.0,3.0,53,0.00,,,0.00,weatherlink.com 1.10,2013-07-27 19:33:00,
2013-07-27 15:48:00,84.1,64.0,29.93,North,355,0.0,3.0,51,0.00,,,0.00,weatherlink.com 1.10,2013-07-27 19:48:00,
2013-07-27 16:03:00,84.2,64.0,29.92,SSE,158,1.0,3.0,50,0.00,,,0.00,weatherlink.com 1.10,2013-07-27 20:03:00,
2013-07-27 16:18:00,84.4,62.0,29.91,SSE,151,0.0,5.0,47,0.00,,,0.00,weatherlink.com 1.10,2013-07-27 20:18:00,
2013-07-27 16:33:00,84.1,63.0,29.91,SE,134,1.0,3.0,50,0.00,,,0.00,weatherlink.com 1.10,2013-07-27 20:33:00,
2013-07-27 16:48:00,82.5,67.0,29.91,SSE,157,0.0,4.0,59,0.00,,,0.00,weatherlink.com 1.10,2013-07-27 20:48:00,
2013-07-27 17:03:00,82.1,67.0,29.91,NE,55,2.0,5.0,60,0.00,,,0.00,weatherlink.com 1.10,2013-07-27 21:03:00,
2013-07-27 17:18:00,81.1,67.0,29.90,SE,136,0.0,4.0,62,0.00,,,0.00,weatherlink.com 1.10,2013-07-27 21:18:00,
2013-07-27 17:33:00,80.6,65.0,29.90,SSE,157,2.0,4.0,60,0.00,,,0.00,weatherlink.com 1.10,2013-07-27 21:33:00,
2013-07-27 17:48:00,80.1,65.0,29.89,SE,140,1.0,3.0,61,0.00,,,0.00,weatherlink.com 1.10,2013-07-27 21:48:00,
2013-07-27 18:03:00,80.3,65.0,29.89,SSE,159,1.0,5.0,60,0.00,,,0.00,weatherlink.com 1.10,2013-07-27 22:03:00,
2013-07-27 18:18:00,80.0,64.0,29.89,SSE,151,2.0,5.0,58,0.00,,,0.00,weatherlink.com 1.10,2013-07-27 22:18:00,
2013-07-27 18:33:00,79.6,63.0,29.90,South,184,0.0,5.0,57,0.00,,,0.00,weatherlink.com 1.10,2013-07-27 22:33:00,
2013-07-27 18:48:00,79.3,63.0,29.90,SSE,163,0.0,5.0,57,0.00,,,0.00,weatherlink.com 1.10,2013-07-27 22:48:00,
2013-07-27 19:03:00,78.6,62.0,29.90,SSE,162,0.0,5.0,58,0.00,,,0.00,weatherlink.com 1.10,2013-07-27 23:03:00,
2013-07-27 19:18:00,77.8,62.0,29.91,South,187,1.0,4.0,59,0.00,,,0.00,weatherlink.com 1.10,2013-07-27 23:18:00,
2013-07-27 19:33:00,77.0,62.0,29.92,South,178,2.0,4.0,60,0.00,,,0.00,weatherlink.com 1.10,2013-07-27 23:33:00,
2013-07-27 19:48:00,76.2,62.0,29.92,South,181,0.0,4.0,62,0.00,,,0.00,weatherlink.com 1.10,2013-07-27 23:48:00,
2013-07-27 20:03:00,75.7,63.0,29.92,East,96,0.0,2.0,64,0.00,,,0.00,weatherlink.com 1.10,2013-07-28 00:03:00,
2013-07-27 20:18:00,75.2,63.0,29.93,SSE,155,0.0,3.0,67,0.00,,,0.00,weatherlink.com 1.10,2013-07-28 00:18:00,
2013-07-27 20:33:00,74.7,64.0,29.93,SSE,163,0.0,2.0,69,0.00,,,0.00,weatherlink.com 1.10,2013-07-28 00:33:00,
2013-07-27 20:48:00,74.2,64.0,29.94,SSE,163,0.0,1.0,71,0.00,,,0.00,weatherlink.com 1.10,2013-07-28 00:48:00,
2013-07-27 21:03:00,73.6,64.0,29.94,SSE,165,1.0,2.0,73,0.00,,,0.00,weatherlink.com 1.10,2013-07-28 01:03:00,
2013-07-27 21:18:00,73.3,65.0,29.95,SSE,165,0.0,2.0,74,0.00,,,0.00,weatherlink.com 1.10,2013-07-28 01:18:00,
2013-07-27 21:33:00,72.8,65.0,29.94,SSE,165,0.0,0.0,76,0.00,,,0.00,weatherlink.com 1.10,2013-07-28 01:33:00,
2013-07-27 21:48:00,72.2,65.0,29.94,SSE,165,0.0,1.0,78,0.00,,,0.00,weatherlink.com 1.10,2013-07-28 01:48:00,
2013-07-27 22:03:00,71.7,65.0,29.94,SSE,165,0.0,0.0,79,0.00,,,0.00,weatherlink.com 1.10,2013-07-28 02:03:00,
2013-07-27 22:18:00,71.2,65.0,29.94,SSE,165,0.0,0.0,81,0.00,,,0.00,weatherlink.com 1.10,2013-07-28 02:18:00,
2013-07-27 22:33:00,71.1,65.0,29.93,SSE,165,0.0,0.0,82,0.00,,,0.00,weatherlink.com 1.10,2013-07-28 02:33:00,
2013-07-27 22:48:00,71.0,66.0,29.92,SSE,165,0.0,0.0,83,0.00,,,0.00,weatherlink.com 1.10,2013-07-28 02:48:00,
2013-07-27 23:03:00,70.6,66.0,29.92,SSE,165,0.0,0.0,84,0.00,,,0.00,weatherlink.com 1.10,2013-07-28 03:03:00,
2013-07-27 23:18:00,70.1,65.0,29.91,SSE,165,0.0,0.0,85,0.00,,,0.00,weatherlink.com 1.10,2013-07-28 03:18:00,
2013-07-27 23:33:00,69.7,65.0,29.91,SSE,165,0.0,0.0,86,0.00,,,0.00,weatherlink.com 1.10,2013-07-28 03:33:00,
2013-07-27 23:48:00,69.2,65.0,29.90,SSE,165,0.0,0.0,86,0.00,,,0.00,weatherlink.com 1.10,2013-07-28 03:48:00,